sensor_id;sensor_type;location;lat;lon;timestamp;P1;durP1;ratioP1;P2;durP2;ratioP2
32038;SDS011;18549;42.286;22.688;2023-02-08T00:00:47;47.43;;;23.60;;
32038;SDS011;18549;42.286;22.688;2023-02-08T00:03:14;38.00;;;20.00;;
32038;SDS011;18549;42.286;22.688;2023-02-08T00:05:41;36.93;;;20.93;;
32038;SDS011;18549;42.286;22.688;2023-02-08T00:08:08;36.23;;;20.93;;
32038;SDS011;18549;42.286;22.688;2023-02-08T00:10:35;38.23;;;20.73;;
32038;SDS011;18549;42.286;22.688;2023-02-08T00:13:02;40.63;;;24.03;;
32038;SDS011;18549;42.286;22.688;2023-02-08T00:15:29;36.83;;;22.43;;
32038;SDS011;18549;42.286;22.688;2023-02-08T00:18:00;34.87;;;18.73;;
32038;SDS011;18549;42.286;22.688;2023-02-08T00:20:27;36.83;;;22.02;;
32038;SDS011;18549;42.286;22.688;2023-02-08T00:22:54;27.80;;;18.73;;
32038;SDS011;18549;42.286;22.688;2023-02-08T00:25:21;39.03;;;22.30;;
32038;SDS011;18549;42.286;22.688;2023-02-08T00:27:48;30.83;;;19.33;;
32038;SDS011;18549;42.286;22.688;2023-02-08T00:30:14;30.43;;;18.43;;
32038;SDS011;18549;42.286;22.688;2023-02-08T00:32:41;29.67;;;17.23;;
32038;SDS011;18549;42.286;22.688;2023-02-08T00:35:09;30.77;;;15.67;;
32038;SDS011;18549;42.286;22.688;2023-02-08T00:37:36;29.03;;;16.07;;
32038;SDS011;18549;42.286;22.688;2023-02-08T00:40:03;28.93;;;17.57;;
32038;SDS011;18549;42.286;22.688;2023-02-08T00:42:31;34.77;;;19.10;;
32038;SDS011;18549;42.286;22.688;2023-02-08T00:44:58;33.20;;;19.33;;
32038;SDS011;18549;42.286;22.688;2023-02-08T00:47:25;36.37;;;22.20;;
32038;SDS011;18549;42.286;22.688;2023-02-08T00:49:51;30.57;;;19.93;;
32038;SDS011;18549;42.286;22.688;2023-02-08T00:52:20;33.40;;;17.60;;
32038;SDS011;18549;42.286;22.688;2023-02-08T00:54:47;23.03;;;14.40;;
32038;SDS011;18549;42.286;22.688;2023-02-08T00:57:14;25.77;;;15.27;;
32038;SDS011;18549;42.286;22.688;2023-02-08T00:59:41;18.80;;;12.43;;
32038;SDS011;18549;42.286;22.688;2023-02-08T01:02:07;25.03;;;15.43;;
32038;SDS011;18549;42.286;22.688;2023-02-08T01:04:34;27.57;;;15.53;;
32038;SDS011;18549;42.286;22.688;2023-02-08T01:07:02;33.33;;;18.93;;
32038;SDS011;18549;42.286;22.688;2023-02-08T01:09:30;30.57;;;18.57;;
32038;SDS011;18549;42.286;22.688;2023-02-08T01:11:58;38.90;;;18.87;;
32038;SDS011;18549;42.286;22.688;2023-02-08T01:14:25;24.73;;;15.23;;
32038;SDS011;18549;42.286;22.688;2023-02-08T01:16:52;28.07;;;16.37;;
32038;SDS011;18549;42.286;22.688;2023-02-08T01:19:18;34.50;;;16.83;;
32038;SDS011;18549;42.286;22.688;2023-02-08T01:21:45;28.73;;;17.40;;
32038;SDS011;18549;42.286;22.688;2023-02-08T01:24:13;34.53;;;18.77;;
32038;SDS011;18549;42.286;22.688;2023-02-08T01:26:41;38.67;;;21.97;;
32038;SDS011;18549;42.286;22.688;2023-02-08T01:29:08;32.23;;;21.53;;
32038;SDS011;18549;42.286;22.688;2023-02-08T01:31:36;33.67;;;20.40;;
32038;SDS011;18549;42.286;22.688;2023-02-08T01:34:04;36.20;;;21.83;;
32038;SDS011;18549;42.286;22.688;2023-02-08T01:36:33;38.03;;;21.87;;
32038;SDS011;18549;42.286;22.688;2023-02-08T01:39:00;38.50;;;23.37;;
32038;SDS011;18549;42.286;22.688;2023-02-08T01:41:29;38.10;;;24.33;;
32038;SDS011;18549;42.286;22.688;2023-02-08T01:44:00;41.20;;;24.87;;
32038;SDS011;18549;42.286;22.688;2023-02-08T01:46:30;33.83;;;21.70;;
32038;SDS011;18549;42.286;22.688;2023-02-08T01:49:00;41.77;;;24.40;;
32038;SDS011;18549;42.286;22.688;2023-02-08T01:51:30;41.90;;;23.10;;
32038;SDS011;18549;42.286;22.688;2023-02-08T01:54:03;42.80;;;22.07;;
32038;SDS011;18549;42.286;22.688;2023-02-08T01:56:33;37.33;;;21.67;;
32038;SDS011;18549;42.286;22.688;2023-02-08T01:59:05;39.57;;;23.20;;
32038;SDS011;18549;42.286;22.688;2023-02-08T02:01:36;38.30;;;23.00;;
32038;SDS011;18549;42.286;22.688;2023-02-08T02:04:05;41.57;;;24.10;;
32038;SDS011;18549;42.286;22.688;2023-02-08T02:06:34;36.53;;;22.83;;
32038;SDS011;18549;42.286;22.688;2023-02-08T02:09:08;38.47;;;24.13;;
32038;SDS011;18549;42.286;22.688;2023-02-08T02:11:39;42.37;;;24.87;;
32038;SDS011;18549;42.286;22.688;2023-02-08T02:14:08;40.63;;;24.07;;
32038;SDS011;18549;42.286;22.688;2023-02-08T02:16:35;47.70;;;25.33;;
32038;SDS011;18549;42.286;22.688;2023-02-08T02:19:02;45.57;;;23.77;;
32038;SDS011;18549;42.286;22.688;2023-02-08T02:21:45;43.57;;;25.23;;
32038;SDS011;18549;42.286;22.688;2023-02-08T02:27:39;44.50;;;22.80;;
32038;SDS011;18549;42.286;22.688;2023-02-08T02:33:49;34.67;;;19.73;;
32038;SDS011;18549;42.286;22.688;2023-02-08T02:36:26;34.23;;;20.50;;
32038;SDS011;18549;42.286;22.688;2023-02-08T02:38:59;35.83;;;20.80;;
32038;SDS011;18549;42.286;22.688;2023-02-08T02:41:37;41.40;;;25.13;;
32038;SDS011;18549;42.286;22.688;2023-02-08T02:44:31;48.07;;;25.70;;
32038;SDS011;18549;42.286;22.688;2023-02-08T02:47:04;42.57;;;23.67;;
32038;SDS011;18549;42.286;22.688;2023-02-08T02:49:38;35.20;;;23.50;;
32038;SDS011;18549;42.286;22.688;2023-02-08T02:52:14;40.33;;;25.30;;
32038;SDS011;18549;42.286;22.688;2023-02-08T02:54:46;38.63;;;22.83;;
32038;SDS011;18549;42.286;22.688;2023-02-08T02:57:18;37.00;;;23.40;;
32038;SDS011;18549;42.286;22.688;2023-02-08T02:59:49;34.30;;;21.03;;
32038;SDS011;18549;42.286;22.688;2023-02-08T03:02:16;37.30;;;19.40;;
32038;SDS011;18549;42.286;22.688;2023-02-08T03:04:49;35.57;;;21.30;;
32038;SDS011;18549;42.286;22.688;2023-02-08T03:07:32;37.63;;;21.27;;
32038;SDS011;18549;42.286;22.688;2023-02-08T03:10:13;44.63;;;25.17;;
32038;SDS011;18549;42.286;22.688;2023-02-08T03:12:52;46.67;;;25.33;;
32038;SDS011;18549;42.286;22.688;2023-02-08T03:15:27;59.80;;;34.43;;
32038;SDS011;18549;42.286;22.688;2023-02-08T03:18:03;50.13;;;29.70;;
32038;SDS011;18549;42.286;22.688;2023-02-08T03:20:37;36.93;;;23.20;;
32038;SDS011;18549;42.286;22.688;2023-02-08T03:23:08;36.23;;;22.10;;
32038;SDS011;18549;42.286;22.688;2023-02-08T03:25:43;31.00;;;20.73;;
32038;SDS011;18549;42.286;22.688;2023-02-08T03:28:17;36.30;;;22.03;;
32038;SDS011;18549;42.286;22.688;2023-02-08T03:30:50;30.30;;;20.57;;
32038;SDS011;18549;42.286;22.688;2023-02-08T03:33:27;31.00;;;18.87;;
32038;SDS011;18549;42.286;22.688;2023-02-08T03:36:02;33.77;;;18.77;;
32038;SDS011;18549;42.286;22.688;2023-02-08T03:38:32;27.60;;;16.13;;
32038;SDS011;18549;42.286;22.688;2023-02-08T03:41:03;28.27;;;17.10;;
32038;SDS011;18549;42.286;22.688;2023-02-08T03:43:33;28.87;;;17.27;;
32038;SDS011;18549;42.286;22.688;2023-02-08T03:46:05;29.03;;;17.07;;
32038;SDS011;18549;42.286;22.688;2023-02-08T03:48:35;35.13;;;18.87;;
32038;SDS011;18549;42.286;22.688;2023-02-08T03:51:07;35.13;;;17.50;;
32038;SDS011;18549;42.286;22.688;2023-02-08T03:53:34;47.17;;;20.83;;
32038;SDS011;18549;42.286;22.688;2023-02-08T03:56:06;37.63;;;21.20;;
32038;SDS011;18549;42.286;22.688;2023-02-08T03:58:37;34.60;;;20.10;;
32038;SDS011;18549;42.286;22.688;2023-02-08T04:01:11;35.33;;;20.60;;
32038;SDS011;18549;42.286;22.688;2023-02-08T04:03:42;47.40;;;24.53;;
32038;SDS011;18549;42.286;22.688;2023-02-08T04:06:14;57.87;;;26.97;;
32038;SDS011;18549;42.286;22.688;2023-02-08T04:08:41;85.17;;;43.43;;
32038;SDS011;18549;42.286;22.688;2023-02-08T04:11:08;73.70;;;39.83;;
32038;SDS011;18549;42.286;22.688;2023-02-08T04:13:34;63.00;;;37.20;;
32038;SDS011;18549;42.286;22.688;2023-02-08T04:16:02;67.10;;;35.50;;
32038;SDS011;18549;42.286;22.688;2023-02-08T04:18:28;68.37;;;39.00;;
32038;SDS011;18549;42.286;22.688;2023-02-08T04:20:55;78.57;;;39.50;;
32038;SDS011;18549;42.286;22.688;2023-02-08T04:23:23;56.47;;;32.10;;
32038;SDS011;18549;42.286;22.688;2023-02-08T04:25:50;51.30;;;30.33;;
32038;SDS011;18549;42.286;22.688;2023-02-08T04:28:17;33.50;;;21.83;;
32038;SDS011;18549;42.286;22.688;2023-02-08T04:30:43;33.60;;;17.93;;
32038;SDS011;18549;42.286;22.688;2023-02-08T04:33:10;25.03;;;16.33;;
32038;SDS011;18549;42.286;22.688;2023-02-08T04:35:39;25.83;;;16.10;;
32038;SDS011;18549;42.286;22.688;2023-02-08T04:38:05;32.50;;;20.73;;
32038;SDS011;18549;42.286;22.688;2023-02-08T04:40:34;87.40;;;39.70;;
32038;SDS011;18549;42.286;22.688;2023-02-08T04:43:01;73.87;;;36.87;;
32038;SDS011;18549;42.286;22.688;2023-02-08T04:45:27;99.83;;;43.77;;
32038;SDS011;18549;42.286;22.688;2023-02-08T04:47:56;106.97;;;44.90;;
32038;SDS011;18549;42.286;22.688;2023-02-08T04:50:23;177.97;;;64.10;;
32038;SDS011;18549;42.286;22.688;2023-02-08T04:52:50;140.83;;;58.27;;
32038;SDS011;18549;42.286;22.688;2023-02-08T04:55:17;160.17;;;67.33;;
32038;SDS011;18549;42.286;22.688;2023-02-08T04:57:45;102.77;;;47.20;;
32038;SDS011;18549;42.286;22.688;2023-02-08T05:00:12;72.43;;;33.37;;
32038;SDS011;18549;42.286;22.688;2023-02-08T05:02:39;55.37;;;32.20;;
32038;SDS011;18549;42.286;22.688;2023-02-08T05:05:06;50.37;;;28.77;;
32038;SDS011;18549;42.286;22.688;2023-02-08T05:07:33;55.37;;;30.80;;
32038;SDS011;18549;42.286;22.688;2023-02-08T05:10:00;53.13;;;30.27;;
32038;SDS011;18549;42.286;22.688;2023-02-08T05:12:27;41.33;;;24.77;;
32038;SDS011;18549;42.286;22.688;2023-02-08T05:14:55;32.33;;;19.50;;
32038;SDS011;18549;42.286;22.688;2023-02-08T05:17:22;36.60;;;19.57;;
32038;SDS011;18549;42.286;22.688;2023-02-08T05:19:49;36.73;;;22.27;;
32038;SDS011;18549;42.286;22.688;2023-02-08T05:22:15;31.87;;;20.07;;
32038;SDS011;18549;42.286;22.688;2023-02-08T05:24:42;32.53;;;20.77;;
32038;SDS011;18549;42.286;22.688;2023-02-08T05:27:09;25.67;;;15.50;;
32038;SDS011;18549;42.286;22.688;2023-02-08T05:29:36;26.30;;;17.20;;
32038;SDS011;18549;42.286;22.688;2023-02-08T05:32:04;24.03;;;16.63;;
32038;SDS011;18549;42.286;22.688;2023-02-08T05:34:31;31.77;;;18.73;;
32038;SDS011;18549;42.286;22.688;2023-02-08T05:36:58;34.97;;;19.83;;
32038;SDS011;18549;42.286;22.688;2023-02-08T05:39:24;40.03;;;18.93;;
32038;SDS011;18549;42.286;22.688;2023-02-08T05:41:51;37.33;;;21.50;;
32038;SDS011;18549;42.286;22.688;2023-02-08T05:44:18;50.90;;;28.67;;
32038;SDS011;18549;42.286;22.688;2023-02-08T05:46:45;51.83;;;25.83;;
32038;SDS011;18549;42.286;22.688;2023-02-08T05:49:13;50.27;;;26.47;;
32038;SDS011;18549;42.286;22.688;2023-02-08T05:51:40;52.43;;;28.73;;
32038;SDS011;18549;42.286;22.688;2023-02-08T05:54:07;61.03;;;32.27;;
32038;SDS011;18549;42.286;22.688;2023-02-08T05:56:34;77.40;;;42.33;;
32038;SDS011;18549;42.286;22.688;2023-02-08T05:59:01;80.50;;;38.90;;
32038;SDS011;18549;42.286;22.688;2023-02-08T06:01:28;70.27;;;36.70;;
32038;SDS011;18549;42.286;22.688;2023-02-08T06:03:57;66.90;;;30.67;;
32038;SDS011;18549;42.286;22.688;2023-02-08T06:06:26;64.23;;;31.83;;
32038;SDS011;18549;42.286;22.688;2023-02-08T06:08:53;48.63;;;28.27;;
32038;SDS011;18549;42.286;22.688;2023-02-08T06:11:20;38.03;;;23.43;;
32038;SDS011;18549;42.286;22.688;2023-02-08T06:13:47;48.17;;;27.47;;
32038;SDS011;18549;42.286;22.688;2023-02-08T06:16:14;51.83;;;28.90;;
32038;SDS011;18549;42.286;22.688;2023-02-08T06:18:41;48.60;;;27.63;;
32038;SDS011;18549;42.286;22.688;2023-02-08T06:21:08;60.07;;;32.70;;
32038;SDS011;18549;42.286;22.688;2023-02-08T06:23:37;59.37;;;33.70;;
32038;SDS011;18549;42.286;22.688;2023-02-08T06:26:05;69.73;;;40.70;;
32038;SDS011;18549;42.286;22.688;2023-02-08T06:28:32;64.33;;;34.30;;
32038;SDS011;18549;42.286;22.688;2023-02-08T06:30:59;61.80;;;35.10;;
32038;SDS011;18549;42.286;22.688;2023-02-08T06:33:27;46.90;;;26.47;;
32038;SDS011;18549;42.286;22.688;2023-02-08T06:35:54;67.93;;;36.43;;
32038;SDS011;18549;42.286;22.688;2023-02-08T06:38:21;50.77;;;29.40;;
32038;SDS011;18549;42.286;22.688;2023-02-08T06:40:49;56.97;;;31.60;;
32038;SDS011;18549;42.286;22.688;2023-02-08T06:43:19;57.07;;;31.63;;
32038;SDS011;18549;42.286;22.688;2023-02-08T06:45:46;55.77;;;30.87;;
32038;SDS011;18549;42.286;22.688;2023-02-08T06:48:13;62.03;;;31.73;;
32038;SDS011;18549;42.286;22.688;2023-02-08T06:50:40;61.03;;;32.93;;
32038;SDS011;18549;42.286;22.688;2023-02-08T06:53:07;58.53;;;32.13;;
32038;SDS011;18549;42.286;22.688;2023-02-08T06:55:34;84.50;;;48.63;;
32038;SDS011;18549;42.286;22.688;2023-02-08T06:58:02;48.20;;;27.13;;
32038;SDS011;18549;42.286;22.688;2023-02-08T07:00:29;45.73;;;25.80;;
32038;SDS011;18549;42.286;22.688;2023-02-08T07:02:57;44.67;;;22.37;;
32038;SDS011;18549;42.286;22.688;2023-02-08T07:05:24;37.30;;;24.00;;
32038;SDS011;18549;42.286;22.688;2023-02-08T07:07:51;40.30;;;24.40;;
32038;SDS011;18549;42.286;22.688;2023-02-08T07:10:18;42.87;;;23.73;;
32038;SDS011;18549;42.286;22.688;2023-02-08T07:12:45;40.20;;;24.77;;
32038;SDS011;18549;42.286;22.688;2023-02-08T07:15:14;42.90;;;25.70;;
32038;SDS011;18549;42.286;22.688;2023-02-08T07:17:40;41.83;;;23.27;;
32038;SDS011;18549;42.286;22.688;2023-02-08T07:20:08;51.73;;;26.60;;
32038;SDS011;18549;42.286;22.688;2023-02-08T07:22:36;57.60;;;28.00;;
32038;SDS011;18549;42.286;22.688;2023-02-08T07:25:03;71.33;;;30.57;;
32038;SDS011;18549;42.286;22.688;2023-02-08T07:27:31;127.67;;;51.70;;
32038;SDS011;18549;42.286;22.688;2023-02-08T07:29:58;86.00;;;37.87;;
32038;SDS011;18549;42.286;22.688;2023-02-08T07:32:26;42.00;;;25.07;;
32038;SDS011;18549;42.286;22.688;2023-02-08T07:34:53;38.50;;;22.97;;
32038;SDS011;18549;42.286;22.688;2023-02-08T07:37:20;75.03;;;37.07;;
32038;SDS011;18549;42.286;22.688;2023-02-08T07:39:47;55.43;;;30.37;;
32038;SDS011;18549;42.286;22.688;2023-02-08T07:42:13;45.87;;;27.60;;
32038;SDS011;18549;42.286;22.688;2023-02-08T07:44:40;177.57;;;79.13;;
32038;SDS011;18549;42.286;22.688;2023-02-08T07:47:07;76.60;;;40.53;;
32038;SDS011;18549;42.286;22.688;2023-02-08T07:49:35;46.37;;;26.03;;
32038;SDS011;18549;42.286;22.688;2023-02-08T07:52:02;53.77;;;28.80;;
32038;SDS011;18549;42.286;22.688;2023-02-08T07:54:29;48.10;;;26.80;;
32038;SDS011;18549;42.286;22.688;2023-02-08T07:56:56;29.70;;;16.93;;
32038;SDS011;18549;42.286;22.688;2023-02-08T07:59:22;31.87;;;20.80;;
32038;SDS011;18549;42.286;22.688;2023-02-08T08:01:49;34.27;;;20.97;;
32038;SDS011;18549;42.286;22.688;2023-02-08T08:04:16;32.80;;;17.77;;
32038;SDS011;18549;42.286;22.688;2023-02-08T08:06:45;20.87;;;13.77;;
32038;SDS011;18549;42.286;22.688;2023-02-08T08:09:13;24.40;;;16.60;;
32038;SDS011;18549;42.286;22.688;2023-02-08T08:11:40;26.00;;;15.73;;
32038;SDS011;18549;42.286;22.688;2023-02-08T08:14:07;20.70;;;13.90;;
32038;SDS011;18549;42.286;22.688;2023-02-08T08:16:34;19.97;;;12.87;;
32038;SDS011;18549;42.286;22.688;2023-02-08T08:19:00;21.40;;;14.57;;
32038;SDS011;18549;42.286;22.688;2023-02-08T08:21:27;39.43;;;21.10;;
32038;SDS011;18549;42.286;22.688;2023-02-08T08:23:55;42.10;;;24.93;;
32038;SDS011;18549;42.286;22.688;2023-02-08T08:26:22;30.63;;;20.80;;
32038;SDS011;18549;42.286;22.688;2023-02-08T08:28:49;34.17;;;20.20;;
32038;SDS011;18549;42.286;22.688;2023-02-08T08:31:17;27.13;;;18.70;;
32038;SDS011;18549;42.286;22.688;2023-02-08T08:33:45;28.40;;;16.63;;
32038;SDS011;18549;42.286;22.688;2023-02-08T08:36:12;29.00;;;17.77;;
32038;SDS011;18549;42.286;22.688;2023-02-08T08:38:39;25.70;;;17.77;;
32038;SDS011;18549;42.286;22.688;2023-02-08T08:41:08;23.77;;;15.40;;
32038;SDS011;18549;42.286;22.688;2023-02-08T08:43:36;19.37;;;13.37;;
32038;SDS011;18549;42.286;22.688;2023-02-08T08:46:04;19.70;;;13.50;;
32038;SDS011;18549;42.286;22.688;2023-02-08T08:48:31;31.77;;;15.73;;
32038;SDS011;18549;42.286;22.688;2023-02-08T08:50:58;26.93;;;16.27;;
32038;SDS011;18549;42.286;22.688;2023-02-08T08:53:25;25.20;;;15.67;;
32038;SDS011;18549;42.286;22.688;2023-02-08T08:55:52;28.50;;;17.37;;
32038;SDS011;18549;42.286;22.688;2023-02-08T08:58:21;31.13;;;17.57;;
32038;SDS011;18549;42.286;22.688;2023-02-08T09:00:48;23.90;;;16.17;;
32038;SDS011;18549;42.286;22.688;2023-02-08T09:03:16;27.33;;;14.80;;
32038;SDS011;18549;42.286;22.688;2023-02-08T09:05:43;24.57;;;15.13;;
32038;SDS011;18549;42.286;22.688;2023-02-08T09:08:09;19.33;;;12.17;;
32038;SDS011;18549;42.286;22.688;2023-02-08T09:10:37;21.03;;;13.03;;
32038;SDS011;18549;42.286;22.688;2023-02-08T09:13:04;16.23;;;11.63;;
32038;SDS011;18549;42.286;22.688;2023-02-08T09:15:33;28.30;;;18.83;;
32038;SDS011;18549;42.286;22.688;2023-02-08T09:17:59;24.30;;;15.73;;
32038;SDS011;18549;42.286;22.688;2023-02-08T09:20:26;63.90;;;36.00;;
32038;SDS011;18549;42.286;22.688;2023-02-08T09:22:53;28.53;;;18.67;;
32038;SDS011;18549;42.286;22.688;2023-02-08T09:25:20;23.10;;;13.10;;
32038;SDS011;18549;42.286;22.688;2023-02-08T09:27:51;24.73;;;15.93;;
32038;SDS011;18549;42.286;22.688;2023-02-08T09:30:17;17.97;;;12.83;;
32038;SDS011;18549;42.286;22.688;2023-02-08T09:32:46;22.77;;;14.10;;
32038;SDS011;18549;42.286;22.688;2023-02-08T09:35:12;17.53;;;12.37;;
32038;SDS011;18549;42.286;22.688;2023-02-08T09:37:40;23.07;;;13.70;;
32038;SDS011;18549;42.286;22.688;2023-02-08T09:40:10;21.80;;;14.10;;
32038;SDS011;18549;42.286;22.688;2023-02-08T09:42:46;24.60;;;14.67;;
32038;SDS011;18549;42.286;22.688;2023-02-08T09:45:30;17.87;;;12.70;;
32038;SDS011;18549;42.286;22.688;2023-02-08T09:48:10;29.50;;;17.70;;
32038;SDS011;18549;42.286;22.688;2023-02-08T09:50:42;19.53;;;13.57;;
32038;SDS011;18549;42.286;22.688;2023-02-08T09:53:12;14.87;;;11.27;;
32038;SDS011;18549;42.286;22.688;2023-02-08T09:55:43;29.83;;;19.40;;
32038;SDS011;18549;42.286;22.688;2023-02-08T09:58:15;25.70;;;16.90;;
32038;SDS011;18549;42.286;22.688;2023-02-08T10:00:47;25.00;;;15.70;;
32038;SDS011;18549;42.286;22.688;2023-02-08T10:03:20;24.03;;;13.37;;
32038;SDS011;18549;42.286;22.688;2023-02-08T10:05:52;19.97;;;13.27;;
32038;SDS011;18549;42.286;22.688;2023-02-08T10:08:19;21.43;;;13.37;;
32038;SDS011;18549;42.286;22.688;2023-02-08T10:10:50;24.30;;;12.43;;
32038;SDS011;18549;42.286;22.688;2023-02-08T10:13:30;21.00;;;13.90;;
32038;SDS011;18549;42.286;22.688;2023-02-08T10:16:07;17.40;;;11.17;;
32038;SDS011;18549;42.286;22.688;2023-02-08T10:18:44;21.83;;;13.57;;
32038;SDS011;18549;42.286;22.688;2023-02-08T10:21:18;21.40;;;13.43;;
32038;SDS011;18549;42.286;22.688;2023-02-08T10:24:00;17.77;;;11.13;;
32038;SDS011;18549;42.286;22.688;2023-02-08T10:26:45;15.30;;;10.47;;
32038;SDS011;18549;42.286;22.688;2023-02-08T10:29:20;19.13;;;12.43;;
32038;SDS011;18549;42.286;22.688;2023-02-08T10:32:00;23.73;;;13.20;;
32038;SDS011;18549;42.286;22.688;2023-02-08T10:34:37;17.33;;;10.07;;
32038;SDS011;18549;42.286;22.688;2023-02-08T10:37:13;23.43;;;15.23;;
32038;SDS011;18549;42.286;22.688;2023-02-08T10:39:41;19.30;;;12.53;;
32038;SDS011;18549;42.286;22.688;2023-02-08T10:42:11;15.57;;;11.10;;
32038;SDS011;18549;42.286;22.688;2023-02-08T10:44:43;12.97;;;9.23;;
32038;SDS011;18549;42.286;22.688;2023-02-08T10:47:22;15.20;;;10.30;;
32038;SDS011;18549;42.286;22.688;2023-02-08T10:50:00;20.67;;;9.07;;
32038;SDS011;18549;42.286;22.688;2023-02-08T10:52:30;20.23;;;13.30;;
32038;SDS011;18549;42.286;22.688;2023-02-08T10:54:57;15.87;;;11.13;;
32038;SDS011;18549;42.286;22.688;2023-02-08T10:57:25;16.93;;;12.30;;
32038;SDS011;18549;42.286;22.688;2023-02-08T10:59:57;23.83;;;15.10;;
32038;SDS011;18549;42.286;22.688;2023-02-08T11:02:28;16.03;;;10.53;;
32038;SDS011;18549;42.286;22.688;2023-02-08T11:04:58;24.53;;;12.13;;
32038;SDS011;18549;42.286;22.688;2023-02-08T11:07:27;26.03;;;16.43;;
32038;SDS011;18549;42.286;22.688;2023-02-08T11:09:57;30.97;;;17.67;;
32038;SDS011;18549;42.286;22.688;2023-02-08T11:12:40;18.67;;;12.27;;
32038;SDS011;18549;42.286;22.688;2023-02-08T11:15:20;20.57;;;12.00;;
32038;SDS011;18549;42.286;22.688;2023-02-08T11:17:52;28.53;;;16.40;;
32038;SDS011;18549;42.286;22.688;2023-02-08T11:20:24;26.73;;;18.03;;
32038;SDS011;18549;42.286;22.688;2023-02-08T11:22:55;19.63;;;12.10;;
32038;SDS011;18549;42.286;22.688;2023-02-08T11:25:30;23.27;;;11.20;;
32038;SDS011;18549;42.286;22.688;2023-02-08T11:28:00;25.70;;;14.83;;
32038;SDS011;18549;42.286;22.688;2023-02-08T11:30:27;30.87;;;18.70;;
32038;SDS011;18549;42.286;22.688;2023-02-08T11:33:12;28.33;;;16.23;;
32038;SDS011;18549;42.286;22.688;2023-02-08T11:35:44;18.60;;;11.23;;
32038;SDS011;18549;42.286;22.688;2023-02-08T11:38:20;36.57;;;20.70;;
32038;SDS011;18549;42.286;22.688;2023-02-08T11:40:51;39.43;;;21.87;;
32038;SDS011;18549;42.286;22.688;2023-02-08T11:43:20;44.57;;;27.87;;
32038;SDS011;18549;42.286;22.688;2023-02-08T11:45:50;40.90;;;21.93;;
32038;SDS011;18549;42.286;22.688;2023-02-08T11:48:21;39.37;;;20.57;;
32038;SDS011;18549;42.286;22.688;2023-02-08T11:50:55;31.20;;;15.73;;
32038;SDS011;18549;42.286;22.688;2023-02-08T11:53:25;36.60;;;20.77;;
32038;SDS011;18549;42.286;22.688;2023-02-08T11:58:58;27.77;;;16.13;;
32038;SDS011;18549;42.286;22.688;2023-02-08T12:01:28;29.53;;;17.10;;
32038;SDS011;18549;42.286;22.688;2023-02-08T12:03:58;35.27;;;18.07;;
32038;SDS011;18549;42.286;22.688;2023-02-08T12:09:23;32.57;;;17.83;;
32038;SDS011;18549;42.286;22.688;2023-02-08T12:12:03;33.93;;;17.07;;
32038;SDS011;18549;42.286;22.688;2023-02-08T12:14:51;46.50;;;26.47;;
32038;SDS011;18549;42.286;22.688;2023-02-08T12:17:29;35.17;;;21.30;;
32038;SDS011;18549;42.286;22.688;2023-02-08T12:20:12;39.33;;;21.80;;
32038;SDS011;18549;42.286;22.688;2023-02-08T12:22:54;26.23;;;18.40;;
32038;SDS011;18549;42.286;22.688;2023-02-08T12:25:31;32.20;;;18.43;;
32038;SDS011;18549;42.286;22.688;2023-02-08T12:28:05;29.47;;;19.13;;
32038;SDS011;18549;42.286;22.688;2023-02-08T12:30:36;31.50;;;19.70;;
32038;SDS011;18549;42.286;22.688;2023-02-08T12:33:15;33.90;;;20.07;;
32038;SDS011;18549;42.286;22.688;2023-02-08T12:35:59;45.27;;;25.67;;
32038;SDS011;18549;42.286;22.688;2023-02-08T12:38:44;38.20;;;20.17;;
32038;SDS011;18549;42.286;22.688;2023-02-08T12:42:11;28.43;;;17.90;;
32038;SDS011;18549;42.286;22.688;2023-02-08T12:44:50;25.17;;;16.20;;
32038;SDS011;18549;42.286;22.688;2023-02-08T12:47:31;24.13;;;15.40;;
32038;SDS011;18549;42.286;22.688;2023-02-08T12:50:10;26.87;;;16.27;;
32038;SDS011;18549;42.286;22.688;2023-02-08T12:52:48;36.90;;;17.83;;
32038;SDS011;18549;42.286;22.688;2023-02-08T12:55:22;35.10;;;22.30;;
32038;SDS011;18549;42.286;22.688;2023-02-08T12:57:55;33.30;;;20.43;;
32038;SDS011;18549;42.286;22.688;2023-02-08T13:00:25;31.70;;;19.10;;
32038;SDS011;18549;42.286;22.688;2023-02-08T13:02:57;26.80;;;15.63;;
32038;SDS011;18549;42.286;22.688;2023-02-08T13:05:32;23.37;;;15.00;;
32038;SDS011;18549;42.286;22.688;2023-02-08T13:08:05;29.27;;;18.83;;
32038;SDS011;18549;42.286;22.688;2023-02-08T13:10:41;36.33;;;21.87;;
32038;SDS011;18549;42.286;22.688;2023-02-08T13:13:13;28.27;;;16.83;;
32038;SDS011;18549;42.286;22.688;2023-02-08T13:15:45;42.17;;;23.07;;
32038;SDS011;18549;42.286;22.688;2023-02-08T13:18:19;24.73;;;15.80;;
32038;SDS011;18549;42.286;22.688;2023-02-08T13:20:50;36.47;;;19.53;;
32038;SDS011;18549;42.286;22.688;2023-02-08T13:23:20;45.47;;;21.50;;
32038;SDS011;18549;42.286;22.688;2023-02-08T13:25:54;40.23;;;24.10;;
32038;SDS011;18549;42.286;22.688;2023-02-08T13:28:24;37.80;;;21.97;;
32038;SDS011;18549;42.286;22.688;2023-02-08T13:30:55;25.03;;;17.07;;
32038;SDS011;18549;42.286;22.688;2023-02-08T13:33:28;27.80;;;16.23;;
32038;SDS011;18549;42.286;22.688;2023-02-08T13:36:00;32.77;;;16.90;;
32038;SDS011;18549;42.286;22.688;2023-02-08T13:38:27;26.30;;;15.27;;
32038;SDS011;18549;42.286;22.688;2023-02-08T13:41:04;37.03;;;18.83;;
32038;SDS011;18549;42.286;22.688;2023-02-08T13:43:37;37.43;;;22.23;;
32038;SDS011;18549;42.286;22.688;2023-02-08T13:46:07;37.17;;;21.07;;
32038;SDS011;18549;42.286;22.688;2023-02-08T13:48:42;33.53;;;17.07;;
32038;SDS011;18549;42.286;22.688;2023-02-08T13:54:24;25.63;;;15.60;;
32038;SDS011;18549;42.286;22.688;2023-02-08T13:56:53;32.07;;;19.73;;
32038;SDS011;18549;42.286;22.688;2023-02-08T13:59:24;33.00;;;18.83;;
32038;SDS011;18549;42.286;22.688;2023-02-08T14:04:48;26.13;;;17.67;;
32038;SDS011;18549;42.286;22.688;2023-02-08T14:07:21;34.97;;;21.17;;
32038;SDS011;18549;42.286;22.688;2023-02-08T14:10:04;35.90;;;21.23;;
32038;SDS011;18549;42.286;22.688;2023-02-08T14:12:43;40.17;;;20.67;;
32038;SDS011;18549;42.286;22.688;2023-02-08T14:15:24;36.33;;;20.60;;
32038;SDS011;18549;42.286;22.688;2023-02-08T14:17:54;41.67;;;22.10;;
32038;SDS011;18549;42.286;22.688;2023-02-08T14:20:24;32.73;;;20.03;;
32038;SDS011;18549;42.286;22.688;2023-02-08T14:22:55;34.57;;;21.20;;
32038;SDS011;18549;42.286;22.688;2023-02-08T14:25:25;34.67;;;18.47;;
32038;SDS011;18549;42.286;22.688;2023-02-08T14:27:57;37.20;;;22.87;;
32038;SDS011;18549;42.286;22.688;2023-02-08T14:30:25;40.13;;;23.13;;
32038;SDS011;18549;42.286;22.688;2023-02-08T14:33:07;44.60;;;25.10;;
32038;SDS011;18549;42.286;22.688;2023-02-08T14:35:40;36.17;;;22.57;;
32038;SDS011;18549;42.286;22.688;2023-02-08T14:50:40;35.17;;;23.00;;
32038;SDS011;18549;42.286;22.688;2023-02-08T14:53:18;36.30;;;19.67;;
32038;SDS011;18549;42.286;22.688;2023-02-08T14:55:51;34.90;;;21.37;;
32038;SDS011;18549;42.286;22.688;2023-02-08T14:58:31;34.40;;;21.50;;